Time;durP1;ratioP1;P1;durP2;ratioP2;P2;SDS_P1;SDS_P2;PMS_P1;PMS_P2;Temp;Humidity;BMP_temperature;BMP_pressure;BME280_temperature;BME280_humidity;BME280_pressure;Samples;Min_cycle;Max_cycle;Signal;HPM_P1;HPM_P2
2022/05/05 00:01:29;;;;;;;5.20;4.10;;;6.80;91.30;;;;;;5114782;28;20883;-63
2022/05/05 00:03:55;;;;;;;4.23;3.87;;;6.80;91.40;;;;;;5114851;28;20530;-66
2022/05/05 00:06:21;;;;;;;8.13;3.80;;;6.70;91.40;;;;;;5114640;28;20407;-66
2022/05/05 00:08:47;;;;;;;4.53;4.13;;;6.70;91.30;;;;;;5113039;28;20456;-62
2022/05/05 00:16:40;;;;;;;4.63;4.30;;;6.60;91.20;;;;;;5114360;28;20986;-67
2022/05/05 00:19:06;;;;;;;5.87;3.57;;;6.60;91.20;;;;;;5113485;28;20493;-66
2022/05/05 00:21:32;;;;;;;5.30;4.57;;;6.50;91.20;;;;;;5114323;28;20260;-62
2022/05/05 00:23:57;;;;;;;4.40;4.10;;;6.50;93.50;;;;;;5114418;28;20157;-61
2022/05/05 00:26:24;;;;;;;4.07;3.47;;;6.50;92.70;;;;;;5113882;28;20180;-62
2022/05/05 00:28:49;;;;;;;4.53;4.23;;;6.40;95.70;;;;;;5113322;28;20206;-62
2022/05/05 00:31:15;;;;;;;3.87;3.63;;;6.40;93.00;;;;;;5114073;28;20402;-62
2022/05/05 00:33:40;;;;;;;7.00;5.50;;;6.40;95.20;;;;;;5114078;28;20181;-62
2022/05/05 00:36:06;;;;;;;5.20;4.67;;;6.30;96.30;;;;;;5095770;28;20267;-62
2022/05/05 00:38:32;;;;;;;4.90;4.40;;;6.30;97.10;;;;;;5113313;28;20163;-67
2022/05/05 00:40:57;;;;;;;4.63;3.70;;;6.20;98.50;;;;;;5113970;28;20399;-63
2022/05/05 00:43:24;;;;;;;4.80;4.40;;;6.20;99.90;;;;;;5113459;28;20273;-62
2022/05/05 00:45:49;;;;;;;4.40;4.10;;;6.10;99.90;;;;;;5113978;28;20173;-61
2022/05/05 00:48:16;;;;;;;4.20;3.90;;;6.10;99.90;;;;;;5113967;28;20496;-61
2022/05/05 00:50:42;;;;;;;5.47;4.80;;;6.00;99.90;;;;;;5112979;28;20161;-61
2022/05/05 00:53:08;;;;;;;6.57;4.70;;;6.00;99.90;;;;;;5095698;28;20584;-62
2022/05/05 00:55:37;;;;;;;4.40;4.00;;;6.00;99.90;;;;;;5113640;28;20418;-62
2022/05/05 00:58:04;;;;;;;4.40;4.20;;;5.90;99.90;;;;;;5113698;28;20192;-66
2022/05/05 01:00:32;;;;;;;8.10;4.77;;;5.90;99.90;;;;;;5112984;28;20414;-62
2022/05/05 01:02:59;;;;;;;4.60;4.00;;;5.90;99.90;;;;;;5113268;28;20791;-66
2022/05/05 01:05:28;;;;;;;4.70;4.23;;;5.90;99.90;;;;;;5113564;28;20399;-66
2022/05/05 01:07:58;;;;;;;10.63;5.90;;;5.90;99.90;;;;;;5114028;28;20454;-62
2022/05/05 01:10:25;;;;;;;9.10;5.30;;;5.80;99.90;;;;;;5112866;28;20403;-61
2022/05/05 01:12:52;;;;;;;8.30;4.13;;;5.80;99.90;;;;;;5113835;28;20460;-66
2022/05/05 01:15:18;;;;;;;5.33;4.90;;;5.70;99.90;;;;;;5113789;28;20411;-66
2022/05/05 01:17:44;;;;;;;5.10;4.70;;;5.70;99.90;;;;;;5113645;28;20456;-63
2022/05/05 01:20:11;;;;;;;5.37;5.00;;;5.70;99.90;;;;;;5112366;28;20394;-66
2022/05/05 01:22:37;;;;;;;4.83;4.43;;;5.70;99.90;;;;;;5113690;28;20199;-61
2022/05/05 01:30:31;;;;;;;7.43;5.40;;;5.50;99.90;;;;;;5112582;28;20764;-66
2022/05/05 01:32:57;;;;;;;5.20;4.90;;;5.50;99.90;;;;;;5113522;28;20415;-61
2022/05/05 01:35:22;;;;;;;4.77;4.53;;;5.40;99.90;;;;;;5113448;28;20173;-62
2022/05/05 01:37:48;;;;;;;5.67;5.20;;;5.40;99.90;;;;;;5112972;28;20177;-66
2022/05/05 01:40:14;;;;;;;6.03;4.50;;;5.40;99.90;;;;;;5112481;28;20633;-61
2022/05/05 01:42:40;;;;;;;4.63;4.30;;;5.30;99.90;;;;;;5113381;28;20268;-66
2022/05/05 01:45:06;;;;;;;5.17;4.77;;;5.30;99.90;;;;;;5113346;28;20823;-66
2022/05/05 01:47:32;;;;;;;6.60;4.47;;;5.20;99.90;;;;;;5113236;28;20406;-67
2022/05/05 01:50:00;;;;;;;6.90;4.80;;;5.10;99.90;;;;;;5112435;28;20751;-61
2022/05/05 01:52:27;;;;;;;5.43;4.17;;;5.10;99.90;;;;;;5113239;28;20185;-66
2022/05/05 01:54:53;;;;;;;4.87;4.50;;;5.10;99.90;;;;;;5113095;28;21080;-63
2022/05/05 01:57:19;;;;;;;4.77;4.37;;;5.10;99.90;;;;;;5113176;28;20505;-66
2022/05/05 01:59:44;;;;;;;9.40;4.70;;;5.10;99.90;;;;;;5112145;28;20180;-63
2022/05/05 02:02:10;;;;;;;4.93;4.47;;;5.10;99.90;;;;;;5113116;28;20201;-61
2022/05/05 02:04:35;;;;;;;9.50;5.80;;;5.10;99.90;;;;;;5113564;28;20606;-66
2022/05/05 02:07:01;;;;;;;6.27;5.40;;;5.10;99.90;;;;;;5113438;28;20180;-61
2022/05/05 02:09:27;;;;;;;6.00;5.40;;;5.20;99.90;;;;;;5115440;28;20203;-61
2022/05/05 02:11:53;;;;;;;4.40;4.03;;;5.20;99.90;;;;;;5116655;28;20214;-67
2022/05/05 02:14:23;;;;;;;5.73;5.20;;;5.20;99.90;;;;;;5116356;28;20157;-66
2022/05/05 02:16:50;;;;;;;5.03;4.63;;;5.20;99.90;;;;;;5116904;28;20387;-62
2022/05/05 02:19:15;;;;;;;4.93;4.60;;;5.20;99.90;;;;;;5115964;28;20434;-61
2022/05/05 02:21:41;;;;;;;4.87;4.47;;;5.20;99.90;;;;;;5116795;28;20431;-67
2022/05/05 02:24:07;;;;;;;5.67;4.10;;;5.10;99.90;;;;;;5098195;28;20639;-65
2022/05/05 02:26:32;;;;;;;7.20;5.33;;;5.10;99.90;;;;;;5116533;28;20179;-65
2022/05/05 02:28:58;;;;;;;6.00;5.40;;;5.10;99.90;;;;;;5115570;28;20784;-62
2022/05/05 02:31:23;;;;;;;6.07;5.60;;;5.10;99.90;;;;;;5116507;28;20617;-61
2022/05/05 02:33:49;;;;;;;7.13;6.03;;;5.10;99.90;;;;;;5116515;28;20191;-67
2022/05/05 02:38:59;;;;;;;6.37;5.20;;;5.10;99.90;;;;;;5115530;28;20172;-65
2022/05/05 02:41:24;;;;;;;6.40;5.70;;;5.10;99.90;;;;;;5116286;28;20411;-62
2022/05/05 02:43:50;;;;;;;5.70;5.20;;;5.10;99.90;;;;;;5116246;28;20594;-66
2022/05/05 02:46:16;;;;;;;9.10;6.60;;;5.10;99.90;;;;;;5116045;28;20211;-62
2022/05/05 02:48:41;;;;;;;7.57;6.63;;;5.00;99.90;;;;;;5114770;28;20202;-66
2022/05/05 02:51:08;;;;;;;6.23;5.67;;;5.00;99.90;;;;;;5116188;28;20172;-61
2022/05/05 02:56:25;;;;;;;7.40;5.90;;;5.00;99.90;;;;;;5091846;28;20411;-66
2022/05/05 02:58:53;;;;;;;5.80;5.47;;;4.80;99.90;;;;;;5115060;28;20434;-62
2022/05/05 03:01:20;;;;;;;6.00;5.50;;;4.80;99.90;;;;;;5115841;28;20665;-62
2022/05/05 03:03:45;;;;;;;6.37;5.87;;;4.70;99.90;;;;;;5115747;28;20429;-62
2022/05/05 03:06:11;;;;;;;7.20;6.43;;;4.70;99.90;;;;;;5115411;28;20268;-65
2022/05/05 03:08:37;;;;;;;8.73;6.07;;;4.70;99.90;;;;;;5096704;28;20208;-61
2022/05/05 03:11:02;;;;;;;7.60;6.90;;;4.60;99.90;;;;;;5115812;28;20214;-66
2022/05/05 03:13:28;;;;;;;9.80;7.20;;;4.50;99.90;;;;;;5115609;28;20193;-66
2022/05/05 03:15:53;;;;;;;7.87;7.17;;;4.50;99.90;;;;;;5115864;28;20564;-61
2022/05/05 03:18:19;;;;;;;7.60;6.97;;;4.40;99.90;;;;;;5115627;28;20258;-67
2022/05/05 03:20:45;;;;;;;7.60;6.97;;;4.40;99.90;;;;;;5114488;28;20199;-66
2022/05/05 03:23:10;;;;;;;7.60;6.93;;;4.40;99.90;;;;;;5115423;28;20187;-65
2022/05/05 03:25:37;;;;;;;6.97;6.30;;;4.40;99.90;;;;;;5115124;28;20621;-61
2022/05/05 03:28:03;;;;;;;6.80;5.80;;;4.40;99.90;;;;;;5115477;28;20195;-66
2022/05/05 03:30:29;;;;;;;6.47;5.87;;;4.40;99.90;;;;;;5114460;28;20397;-64
2022/05/05 03:32:54;;;;;;;9.30;6.17;;;4.40;99.90;;;;;;5115300;28;20432;-65
2022/05/05 03:35:20;;;;;;;9.00;6.90;;;4.20;99.90;;;;;;5115239;28;20252;-63
2022/05/05 03:37:46;;;;;;;8.20;6.90;;;4.20;99.90;;;;;;5096876;28;20258;-65
2022/05/05 03:40:12;;;;;;;7.13;6.53;;;4.20;99.90;;;;;;5114208;28;20847;-66
2022/05/05 03:42:37;;;;;;;9.10;7.03;;;4.20;99.90;;;;;;5114609;28;20268;-62
2022/05/05 03:45:03;;;;;;;7.50;6.70;;;4.20;99.90;;;;;;5114844;28;20495;-61
2022/05/05 03:47:29;;;;;;;7.90;7.10;;;4.20;99.90;;;;;;5115075;28;20249;-61
2022/05/05 03:49:55;;;;;;;7.20;6.60;;;4.20;99.90;;;;;;5113913;28;20886;-62
2022/05/05 03:52:20;;;;;;;7.93;7.20;;;4.20;99.90;;;;;;5114858;28;20184;-61
2022/05/05 03:54:46;;;;;;;7.37;6.70;;;4.20;99.90;;;;;;5114754;28;20173;-67
2022/05/05 03:57:11;;;;;;;9.80;6.10;;;4.20;99.90;;;;;;5114906;28;20256;-66
2022/05/05 03:59:37;;;;;;;6.90;6.20;;;4.20;99.90;;;;;;5113998;28;20166;-66
2022/05/05 04:02:03;;;;;;;10.33;7.17;;;4.20;99.90;;;;;;5114351;28;20201;-62
2022/05/05 04:04:28;;;;;;;7.90;7.10;;;4.20;99.90;;;;;;5114585;28;20224;-66
2022/05/05 04:06:54;;;;;;;7.83;7.03;;;4.20;99.90;;;;;;5114518;28;20488;-62
2022/05/05 04:09:20;;;;;;;7.70;6.43;;;4.20;99.90;;;;;;5113940;28;20740;-66
2022/05/05 04:11:45;;;;;;;11.70;6.70;;;4.20;99.90;;;;;;5114435;28;20165;-66
2022/05/05 04:14:12;;;;;;;9.40;7.20;;;4.20;99.90;;;;;;5114705;28;20654;-61
2022/05/05 04:16:38;;;;;;;7.73;6.43;;;4.30;99.90;;;;;;5114472;28;20164;-67
2022/05/05 04:19:04;;;;;;;12.23;7.30;;;4.30;99.90;;;;;;5113603;28;20821;-67
2022/05/05 04:21:31;;;;;;;10.30;7.87;;;4.30;99.90;;;;;;5114000;28;20594;-62
2022/05/05 04:23:57;;;;;;;16.97;10.90;;;4.40;99.90;;;;;;5114596;28;20400;-62
2022/05/05 04:26:24;;;;;;;10.80;9.00;;;4.40;99.90;;;;;;5114335;28;20410;-66
2022/05/05 04:28:50;;;;;;;10.07;7.50;;;4.40;99.90;;;;;;5113336;28;21048;-67
2022/05/05 04:31:19;;;;;;;8.47;7.43;;;4.40;99.90;;;;;;5113687;28;20846;-62
2022/05/05 04:33:45;;;;;;;10.17;7.03;;;4.50;99.90;;;;;;5114041;28;20498;-66
2022/05/05 04:36:14;;;;;;;6.77;6.10;;;4.40;99.90;;;;;;5114186;28;20396;-66
2022/05/05 04:38:40;;;;;;;10.87;7.60;;;4.50;99.90;;;;;;5094496;28;20924;-66
2022/05/05 04:41:05;;;;;;;7.83;7.03;;;4.50;99.90;;;;;;5114054;28;20403;-67
2022/05/05 04:43:31;;;;;;;7.93;7.00;;;4.60;99.90;;;;;;5114039;28;20779;-61
2022/05/05 04:45:57;;;;;;;8.53;7.67;;;4.60;99.90;;;;;;5113958;28;20936;-66
2022/05/05 04:48:23;;;;;;;7.40;6.70;;;4.70;99.90;;;;;;5113655;28;20306;-67
2022/05/05 04:50:49;;;;;;;7.43;6.50;;;4.80;99.90;;;;;;5113180;28;20160;-66
2022/05/05 04:53:14;;;;;;;7.90;7.10;;;4.80;99.90;;;;;;5095477;28;20438;-62
2022/05/05 04:55:40;;;;;;;15.23;8.33;;;4.90;99.90;;;;;;5113959;28;20164;-66
2022/05/05 04:58:06;;;;;;;8.33;7.03;;;4.90;99.90;;;;;;5113304;28;21010;-63
2022/05/05 05:00:32;;;;;;;10.00;8.57;;;5.00;99.90;;;;;;5094596;28;20542;-66
2022/05/05 05:02:58;;;;;;;7.73;6.93;;;5.20;99.90;;;;;;5113658;28;20212;-62
2022/05/05 05:05:23;;;;;;;8.73;7.80;;;5.30;99.90;;;;;;5095342;28;20176;-62
2022/05/05 05:07:49;;;;;;;8.63;7.90;;;5.50;99.90;;;;;;5114006;28;20405;-67
2022/05/05 05:10:15;;;;;;;8.40;6.80;;;5.60;99.90;;;;;;5112836;28;20254;-62
2022/05/05 05:12:41;;;;;;;10.77;7.80;;;5.70;99.90;;;;;;5113573;28;20259;-62
2022/05/05 05:15:07;;;;;;;8.87;7.03;;;5.80;99.90;;;;;;5113243;28;20161;-62
2022/05/05 05:17:33;;;;;;;12.67;9.03;;;5.90;99.90;;;;;;5113730;28;20165;-63
2022/05/05 05:19:59;;;;;;;10.47;8.33;;;6.00;99.90;;;;;;5112809;28;20398;-66
2022/05/05 05:22:25;;;;;;;10.17;8.37;;;6.20;99.90;;;;;;5113763;28;20425;-66
2022/05/05 05:24:50;;;;;;;9.23;8.33;;;6.30;99.90;;;;;;5113883;28;20821;-61
2022/05/05 05:27:16;;;;;;;11.23;7.67;;;6.50;99.90;;;;;;5113583;28;20596;-67
2022/05/05 05:29:41;;;;;;;9.10;8.20;;;6.60;99.90;;;;;;5112431;28;20200;-66
2022/05/05 05:32:07;;;;;;;9.10;8.30;;;6.80;99.90;;;;;;5113481;28;20665;-66
2022/05/05 05:34:33;;;;;;;8.87;7.97;;;6.90;99.90;;;;;;5113339;28;20205;-63
2022/05/05 05:36:59;;;;;;;18.23;8.37;;;7.10;99.90;;;;;;5113311;28;20394;-62
2022/05/05 05:39:24;;;;;;;11.67;7.23;;;7.20;99.90;;;;;;5112506;28;20158;-67
2022/05/05 05:41:50;;;;;;;7.73;6.93;;;7.40;99.90;;;;;;5095046;28;20194;-65
2022/05/05 05:44:16;;;;;;;9.90;8.17;;;7.50;99.90;;;;;;5116364;28;20191;-64
2022/05/05 05:46:41;;;;;;;8.43;7.10;;;7.60;99.90;;;;;;5117301;28;20172;-70
2022/05/05 05:49:07;;;;;;;7.60;6.10;;;7.70;99.90;;;;;;5116367;28;20598;-70
2022/05/05 05:51:33;;;;;;;8.17;6.07;;;7.70;99.90;;;;;;5116634;28;20658;-66
2022/05/05 05:53:59;;;;;;;9.50;5.40;;;7.80;99.90;;;;;;5116250;28;20764;-63
2022/05/05 05:56:24;;;;;;;11.60;7.03;;;7.90;99.90;;;;;;5117300;28;20564;-63
2022/05/05 05:58:50;;;;;;;9.13;6.30;;;8.00;99.90;;;;;;5116237;28;20412;-63
2022/05/05 06:01:15;;;;;;;6.57;6.00;;;8.00;99.90;;;;;;5117005;28;20522;-63
2022/05/05 06:03:53;;;;;;;5.60;5.10;;;8.00;99.90;;;;;;5116859;28;20181;-68
2022/05/05 06:06:22;;;;;;;8.77;5.60;;;8.10;99.90;;;;;;5116980;28;20165;-68
2022/05/05 06:08:48;;;;;;;9.60;5.27;;;8.20;99.90;;;;;;5115694;28;20570;-68
2022/05/05 06:11:14;;;;;;;6.47;5.97;;;8.30;99.90;;;;;;5098788;28;20502;-63
2022/05/05 06:13:39;;;;;;;9.40;5.43;;;8.30;99.90;;;;;;5098341;28;20325;-63
2022/05/05 06:16:06;;;;;;;6.33;5.37;;;8.40;99.90;;;;;;5116726;28;20163;-68
2022/05/05 06:18:33;;;;;;;6.43;5.60;;;8.50;99.90;;;;;;5116008;28;20168;-69
2022/05/05 06:20:58;;;;;;;5.50;5.00;;;8.60;99.90;;;;;;5116704;28;20846;-63
2022/05/05 06:23:24;;;;;;;8.10;6.50;;;8.70;99.90;;;;;;5116812;28;20504;-69
2022/05/05 06:25:50;;;;;;;14.13;5.43;;;8.80;99.90;;;;;;5116005;28;20408;-69
2022/05/05 06:28:15;;;;;;;7.87;5.50;;;8.90;99.90;;;;;;5116560;28;20212;-69
2022/05/05 06:30:41;;;;;;;10.17;4.57;;;9.00;99.90;;;;;;5115607;28;20171;-68
2022/05/05 06:33:06;;;;;;;5.37;4.80;;;9.10;99.90;;;;;;5116569;28;20198;-69
2022/05/05 06:35:32;;;;;;;6.53;5.80;;;9.10;99.90;;;;;;5116429;28;20168;-69
2022/05/05 06:37:58;;;;;;;5.93;4.57;;;9.10;99.90;;;;;;5116431;28;20229;-64
2022/05/05 06:40:24;;;;;;;6.23;5.53;;;9.20;99.90;;;;;;5115382;28;20171;-68
2022/05/05 06:42:50;;;;;;;5.23;4.73;;;9.30;99.90;;;;;;5116219;28;20703;-64
2022/05/05 06:45:16;;;;;;;6.70;5.10;;;9.30;99.90;;;;;;5115792;28;20425;-68
2022/05/05 06:47:42;;;;;;;4.77;4.47;;;9.30;99.90;;;;;;5116241;28;20188;-68
2022/05/05 06:50:08;;;;;;;6.77;4.83;;;9.40;99.90;;;;;;5115155;28;20434;-65
2022/05/05 06:52:34;;;;;;;4.73;4.23;;;9.40;99.90;;;;;;5098015;28;20438;-63
2022/05/05 06:55:00;;;;;;;6.10;5.37;;;9.50;99.90;;;;;;5115800;28;20376;-69
2022/05/05 06:57:26;;;;;;;4.17;3.77;;;9.60;99.90;;;;;;5115990;28;20211;-64
2022/05/05 06:59:52;;;;;;;6.50;4.80;;;9.70;99.90;;;;;;5115036;28;20410;-64
2022/05/05 07:02:18;;;;;;;6.73;4.83;;;9.70;99.90;;;;;;5097275;28;20405;-64
2022/05/05 07:07:28;;;;;;;8.63;4.80;;;9.80;99.90;;;;;;5115835;28;20421;-69
2022/05/05 07:12:38;;;;;;;9.30;5.20;;;9.80;99.90;;;;;;5115673;28;20546;-63
2022/05/05 07:15:04;;;;;;;4.30;4.00;;;9.80;99.90;;;;;;5115513;28;20402;-64
2022/05/05 07:17:30;;;;;;;4.50;4.10;;;9.80;99.90;;;;;;5115868;28;20458;-69
2022/05/05 07:19:56;;;;;;;7.10;4.33;;;9.90;99.90;;;;;;5114501;28;20409;-63
2022/05/05 07:22:21;;;;;;;5.60;4.40;;;10.00;99.90;;;;;;5115348;28;20680;-64
2022/05/05 07:24:47;;;;;;;7.60;4.57;;;10.00;99.90;;;;;;5115489;28;20570;-64
2022/05/05 07:27:13;;;;;;;6.30;5.10;;;10.10;99.90;;;;;;5115616;28;20233;-68
2022/05/05 07:29:40;;;;;;;6.33;3.80;;;10.10;99.90;;;;;;5114807;28;20207;-68
2022/05/05 07:32:06;;;;;;;6.10;4.57;;;10.20;99.90;;;;;;5115448;28;20176;-64
2022/05/05 07:34:34;;;;;;;4.60;4.23;;;10.30;99.90;;;;;;5115029;28;20434;-64
2022/05/05 07:37:00;;;;;;;5.53;4.50;;;10.30;99.90;;;;;;5115109;28;20478;-69
2022/05/05 07:39:26;;;;;;;5.40;4.60;;;10.40;99.90;;;;;;5114309;28;20424;-69
2022/05/05 07:41:51;;;;;;;5.03;4.47;;;10.40;99.90;;;;;;5115173;28;20394;-64
2022/05/05 07:44:17;;;;;;;4.60;4.20;;;10.40;99.90;;;;;;5115323;28;20630;-64
2022/05/05 07:46:43;;;;;;;4.87;4.27;;;10.40;99.90;;;;;;5115066;28;20165;-69
2022/05/05 07:49:09;;;;;;;6.00;4.10;;;10.60;99.90;;;;;;5114436;28;20184;-68
2022/05/05 07:51:35;;;;;;;8.10;4.00;;;10.70;99.90;;;;;;5114955;28;20398;-64
2022/05/05 07:56:46;;;;;;;3.30;3.10;;;11.10;99.90;;;;;;5115026;28;20783;-69
2022/05/05 07:59:13;;;;;;;3.90;3.17;;;11.30;99.90;;;;;;5114395;28;20410;-68
2022/05/05 08:01:38;;;;;;;6.00;3.97;;;11.40;99.90;;;;;;5114812;28;20398;-69
2022/05/05 08:04:04;;;;;;;3.80;3.60;;;11.40;96.70;;;;;;5114767;28;20373;-69
2022/05/05 08:06:31;;;;;;;8.97;3.90;;;11.30;92.80;;;;;;5113972;28;20161;-68
2022/05/05 08:08:57;;;;;;;3.57;3.27;;;11.40;92.50;;;;;;5113754;28;20954;-64
2022/05/05 08:11:22;;;;;;;4.40;3.93;;;11.40;92.50;;;;;;5114734;28;20399;-68
2022/05/05 08:13:49;;;;;;;4.97;3.83;;;11.50;92.60;;;;;;5114226;28;20419;-63
2022/05/05 08:16:16;;;;;;;7.43;3.70;;;11.60;93.50;;;;;;5114359;28;20625;-69
2022/05/05 08:18:42;;;;;;;5.30;3.70;;;11.70;92.60;;;;;;5113696;28;20412;-68
2022/05/05 08:21:11;;;;;;;3.50;3.30;;;11.70;92.60;;;;;;5114047;28;20913;-68
2022/05/05 08:23:38;;;;;;;5.63;4.00;;;11.80;92.70;;;;;;5114448;28;20439;-68
2022/05/05 08:28:49;;;;;;;4.73;4.30;;;11.90;92.70;;;;;;5113476;28;20499;-65
2022/05/05 08:31:15;;;;;;;5.97;4.50;;;12.00;92.80;;;;;;5114100;28;20455;-68
2022/05/05 08:33:41;;;;;;;8.00;4.20;;;12.10;92.80;;;;;;5113563;28;20400;-63
2022/05/05 08:36:08;;;;;;;4.63;4.33;;;12.10;92.80;;;;;;5114200;28;20365;-63
2022/05/05 08:38:34;;;;;;;5.10;4.60;;;12.20;92.80;;;;;;5113259;28;20369;-69
2022/05/05 08:41:01;;;;;;;6.83;4.93;;;12.10;87.30;;;;;;5114084;28;20973;-68
2022/05/05 08:43:26;;;;;;;4.30;4.00;;;12.30;90.10;;;;;;5095844;28;20437;-63
2022/05/05 08:45:53;;;;;;;8.90;4.40;;;12.40;84.90;;;;;;5114085;28;20464;-68
2022/05/05 08:48:20;;;;;;;5.13;4.73;;;12.50;81.10;;;;;;5114164;28;20212;-63
2022/05/05 08:50:51;;;;;;;4.30;3.90;;;12.70;84.10;;;;;;5112631;28;20365;-64
2022/05/05 08:53:20;;;;;;;5.87;4.13;;;12.90;81.30;;;;;;5113850;28;20422;-63
2022/05/05 08:55:46;;;;;;;4.00;3.70;;;13.00;72.70;;;;;;5114039;28;20377;-63
2022/05/05 08:58:12;;;;;;;6.07;4.23;;;12.90;61.60;;;;;;5113841;28;20408;-67
2022/05/05 09:00:38;;;;;;;5.57;3.87;;;13.20;64.10;;;;;;5113010;28;20653;-69
2022/05/05 09:03:09;;;;;;;6.03;3.50;;;13.50;68.30;;;;;;5113734;28;20407;-68
2022/05/05 09:05:43;;;;;;;4.43;3.10;;;13.60;66.70;;;;;;5113933;28;20171;-63
2022/05/05 09:08:27;;;;;;;3.80;3.50;;;13.90;67.00;;;;;;5113457;28;20958;-64
2022/05/05 09:10:57;;;;;;;7.60;3.50;;;14.30;63.10;;;;;;5113358;28;20522;-64
2022/05/05 09:13:31;;;;;;;6.57;3.93;;;14.60;61.70;;;;;;5113561;28;21010;-64
2022/05/05 09:15:57;;;;;;;8.13;4.80;;;14.90;62.10;;;;;;5113685;28;20536;-69
2022/05/05 09:18:26;;;;;;;4.60;4.20;;;15.20;61.70;;;;;;5114361;28;20493;-64
2022/05/05 09:20:52;;;;;;;4.07;3.67;;;15.20;51.20;;;;;;5117313;28;20760;-64
2022/05/05 09:23:34;;;;;;;3.80;3.50;;;15.40;46.40;;;;;;5117669;28;20422;-64
2022/05/05 09:26:01;;;;;;;4.17;3.77;;;15.70;56.60;;;;;;5117951;28;20403;-69
2022/05/05 09:28:32;;;;;;;6.10;4.30;;;16.10;48.30;;;;;;5117083;28;20450;-70
2022/05/05 09:31:09;;;;;;;4.03;3.40;;;16.30;47.50;;;;;;5117924;28;20887;-70
2022/05/05 09:33:35;;;;;;;8.90;4.00;;;16.40;37.20;;;;;;5117632;28;20421;-64
2022/05/05 09:36:09;;;;;;;8.57;5.00;;;16.50;38.10;;;;;;5117749;28;20490;-64
2022/05/05 09:38:57;;;;;;;3.70;3.07;;;16.70;36.80;;;;;;5117001;28;20403;-64
2022/05/05 09:41:24;;;;;;;3.23;3.00;;;16.80;24.80;;;;;;5117547;28;20445;-70
2022/05/05 09:43:53;;;;;;;5.33;4.10;;;16.60;15.20;;;;;;5117495;28;20463;-70
2022/05/05 09:46:30;;;;;;;3.73;3.43;;;16.70;10.40;;;;;;5117139;28;20926;-69
2022/05/05 09:49:12;;;;;;;3.87;3.20;;;16.90;16.30;;;;;;5116825;28;20987;-70
2022/05/05 09:51:39;;;;;;;4.10;3.70;;;17.30;18.10;;;;;;5117243;28;20402;-68
2022/05/05 09:59:40;;;;;;;3.10;2.80;;;18.10;8.30;;;;;;5116500;28;20417;-69
2022/05/05 10:02:15;;;;;;;3.40;3.20;;;18.30;10.80;;;;;;5117017;28;20418;-70
2022/05/05 10:04:48;;;;;;;8.83;3.10;;;18.20;6.00;;;;;;5116930;28;20489;-64
2022/05/05 10:07:18;;;;;;;5.23;2.83;;;18.50;9.00;;;;;;5117111;28;20422;-65
2022/05/05 10:09:45;;;;;;;3.83;3.40;;;18.70;2.80;;;;;;5116161;28;20524;-70
2022/05/05 10:12:11;;;;;;;5.10;3.30;;;19.20;5.30;;;;;;5116999;28;20421;-69
2022/05/05 10:14:37;;;;;;;5.10;4.33;;;19.40;5.20;;;;;;5117002;28;20834;-70
2022/05/05 10:17:04;;;;;;;6.90;3.17;;;19.40;3.80;;;;;;5116936;28;20395;-70
2022/05/05 10:19:30;;;;;;;7.63;3.60;;;19.70;1.00;;;;;;5097351;28;20414;-70
2022/05/05 10:22:01;;;;;;;5.40;3.40;;;19.70;1.00;;;;;;5116550;28;20899;-65
2022/05/05 10:24:29;;;;;;;3.33;2.90;;;20.20;1.00;;;;;;5116666;28;20403;-71
2022/05/05 10:26:57;;;;;;;3.00;2.77;;;20.40;1.00;;;;;;5116857;28;20403;-70
2022/05/05 10:29:35;;;;;;;5.57;3.50;;;20.50;1.00;;;;;;5115096;28;20483;-65
2022/05/05 10:32:09;;;;;;;3.73;2.80;;;20.70;1.00;;;;;;5116521;28;20422;-65
2022/05/05 10:34:37;;;;;;;4.83;3.67;;;20.80;1.00;;;;;;5116502;28;20387;-66
2022/05/05 10:37:08;;;;;;;5.23;2.60;;;20.30;1.00;;;;;;5097968;28;20442;-65
2022/05/05 10:40:01;;;;;;;5.63;2.17;;;20.20;1.00;;;;;;5114761;28;20422;-64
2022/05/05 10:42:50;;;;;;;2.80;2.30;;;20.30;1.00;;;;;;5116254;28;20771;-69
2022/05/05 10:45:31;;;;;;;3.80;2.20;;;20.40;1.00;;;;;;5108485;28;20411;-64
2022/05/05 10:47:58;;;;;;;2.47;2.27;;;20.90;1.00;;;;;;5115648;28;20974;-71
2022/05/05 10:51:02;;;;;;;7.60;2.60;;;21.30;1.00;;;;;;5115485;28;20434;-70
2022/05/05 10:53:49;;;;;;;10.90;2.60;;;21.60;1.00;;;;;;5116123;28;20438;-65
2022/05/05 10:56:24;;;;;;;3.60;2.87;;;21.90;1.00;;;;;;5116076;28;20414;-65
2022/05/05 10:58:58;;;;;;;3.23;2.60;;;22.10;1.00;;;;;;5115369;28;20430;-70
2022/05/05 11:01:25;;;;;;;4.00;3.00;;;22.00;1.00;;;;;;5116054;28;20404;-71
2022/05/05 11:04:17;;;;;;;5.13;3.13;;;21.90;1.00;;;;;;5115789;28;20465;-65
2022/05/05 11:06:45;;;;;;;3.27;2.97;;;22.00;1.00;;;;;;5108613;28;20506;-70
2022/05/05 11:09:32;;;;;;;4.80;3.80;;;22.30;1.00;;;;;;5115193;28;20542;-70
2022/05/05 11:12:16;;;;;;;8.37;3.90;;;22.70;1.00;;;;;;5115719;28;20415;-71
2022/05/05 11:23:25;;;;;;;4.60;3.07;;;22.90;1.00;;;;;;5115618;28;20485;-71
2022/05/05 11:25:52;;;;;;;5.57;3.13;;;23.50;1.00;;;;;;5115965;28;20463;-69
2022/05/05 11:28:19;;;;;;;2.90;2.60;;;23.80;1.00;;;;;;5115229;28;20935;-70
2022/05/05 11:30:45;;;;;;;3.07;2.77;;;23.80;1.00;;;;;;5114759;28;20914;-65
2022/05/05 11:33:11;;;;;;;9.83;4.40;;;23.80;1.00;;;;;;5115333;28;20429;-71
2022/05/05 11:35:37;;;;;;;2.60;2.40;;;23.80;1.00;;;;;;5115427;28;20406;-70
2022/05/05 11:38:08;;;;;;;4.33;2.67;;;23.90;1.00;;;;;;5115377;28;20169;-65
2022/05/05 11:40:36;;;;;;;2.87;2.57;;;23.90;1.00;;;;;;5113472;28;20302;-70
2022/05/05 11:45:53;;;;;;;2.50;2.30;;;23.70;1.00;;;;;;5115200;28;21015;-65
2022/05/05 11:48:19;;;;;;;2.63;2.33;;;23.60;1.00;;;;;;5114991;28;20442;-71
2022/05/05 11:50:45;;;;;;;3.77;2.13;;;23.70;1.00;;;;;;5114477;28;20491;-71
2022/05/05 11:53:18;;;;;;;7.17;2.13;;;23.80;1.00;;;;;;5114979;28;20525;-66
2022/05/05 11:55:45;;;;;;;5.13;3.23;;;23.70;1.00;;;;;;5115141;28;20711;-71
2022/05/05 12:03:58;;;;;;;7.00;3.47;;;24.80;1.00;;;;;;5114967;28;20955;-71
2022/05/05 12:06:25;;;;;;;4.03;3.40;;;25.40;1.00;;;;;;5114725;28;20395;-72
2022/05/05 12:08:51;;;;;;;5.07;3.20;;;25.00;1.00;;;;;;5113931;28;20462;-65
2022/05/05 12:11:17;;;;;;;7.40;3.67;;;24.90;1.00;;;;;;5114792;28;20925;-71
2022/05/05 12:13:43;;;;;;;4.40;3.17;;;24.80;1.00;;;;;;5114597;28;20498;-65
2022/05/05 12:16:10;;;;;;;2.90;2.70;;;25.10;1.00;;;;;;5114557;28;20673;-71
2022/05/05 12:18:52;;;;;;;3.83;2.70;;;25.40;1.00;;;;;;5113771;28;20236;-71
2022/05/05 12:21:54;;;;;;;4.40;4.00;;;24.60;1.00;;;;;;5095967;28;20425;-66
2022/05/05 12:24:24;;;;;;;4.13;3.37;;;23.70;1.00;;;;;;5100456;28;20464;-72
2022/05/05 12:27:07;;;;;;;6.13;5.40;;;23.50;1.00;;;;;;5114192;28;20505;-74
2022/05/05 12:29:38;;;;;;;5.68;4.10;;;23.40;1.00;;;;;;5113370;28;20911;-69
2022/05/05 12:32:08;;;;;;;5.30;3.60;;;23.30;1.00;;;;;;5114285;28;20180;-65
2022/05/05 12:34:33;;;;;;;3.80;3.47;;;23.20;1.00;;;;;;5114220;28;20485;-65
2022/05/05 12:37:19;;;;;;;4.83;3.60;;;23.20;1.00;;;;;;5114209;28;20963;-66
2022/05/05 12:40:07;;;;;;;3.90;3.50;;;22.80;1.00;;;;;;5113220;28;20168;-66
2022/05/05 12:42:39;;;;;;;5.30;4.23;;;22.10;1.00;;;;;;5114174;28;20406;-73
2022/05/05 12:45:27;;;;;;;5.50;3.50;;;21.30;1.00;;;;;;5114106;28;20402;-65
2022/05/05 12:47:54;;;;;;;5.73;3.93;;;20.50;1.00;;;;;;5114041;28;20386;-65
2022/05/05 12:50:40;;;;;;;10.30;5.43;;;20.30;1.00;;;;;;5113515;28;20415;-65
2022/05/05 13:01:35;;;;;;;4.20;3.80;;;19.70;1.00;;;;;;5114189;28;20743;-64
2022/05/05 13:04:05;;;;;;;5.73;3.83;;;19.80;1.00;;;;;;5113779;28;20418;-66
2022/05/05 13:06:32;;;;;;;7.63;4.00;;;20.00;1.00;;;;;;5113869;28;20383;-70
2022/05/05 13:08:58;;;;;;;6.50;3.77;;;19.90;1.00;;;;;;5112974;28;20450;-70
2022/05/05 13:11:25;;;;;;;3.90;3.60;;;19.90;1.00;;;;;;5113752;28;20407;-70
2022/05/05 13:13:52;;;;;;;5.87;4.30;;;19.70;1.00;;;;;;5113777;28;20460;-64
2022/05/05 13:16:19;;;;;;;4.03;3.40;;;19.80;1.00;;;;;;5113345;28;20956;-70
2022/05/05 13:18:45;;;;;;;5.90;3.90;;;19.90;1.00;;;;;;5112883;28;20463;-65
2022/05/05 13:21:11;;;;;;;5.47;3.80;;;19.90;1.00;;;;;;5113619;28;20391;-70
2022/05/05 13:23:37;;;;;;;8.13;3.60;;;19.80;1.00;;;;;;5113572;28;20411;-70
2022/05/05 13:26:04;;;;;;;7.00;4.13;;;19.70;1.00;;;;;;5095345;28;20407;-65
2022/05/05 13:28:31;;;;;;;4.70;3.70;;;19.50;1.00;;;;;;5112878;28;20495;-71
2022/05/05 13:34:19;;;;;;;4.93;3.20;;;19.50;1.00;;;;;;5113460;28;20756;-71
2022/05/05 13:39:31;;;;;;;3.80;3.47;;;19.60;1.00;;;;;;5010306;28;20415;-71
2022/05/05 13:41:57;;;;;;;4.03;3.13;;;19.50;1.00;;;;;;5096852;28;20518;-65
2022/05/05 14:04:43;;;;;;;4.90;4.50;;;19.20;1.00;;;;;;5070708;28;20532;-67
2022/05/05 14:07:09;;;;;;;8.97;3.97;;;19.00;1.00;;;;;;5070707;28;20897;-67
2022/05/05 14:12:18;;;;;;;5.10;4.00;;;19.40;1.00;;;;;;5070225;28;20251;-60
2022/05/05 14:14:45;;;;;;;5.53;4.30;;;19.50;1.00;;;;;;5070567;28;20400;-60
2022/05/05 14:17:11;;;;;;;4.57;3.70;;;19.50;1.00;;;;;;5070454;28;20162;-61
2022/05/05 14:19:38;;;;;;;9.67;4.10;;;20.00;1.00;;;;;;5069709;28;20419;-61
2022/05/05 14:22:04;;;;;;;5.00;4.43;;;20.60;1.00;;;;;;5070247;28;20526;-67
2022/05/05 14:24:30;;;;;;;4.33;3.93;;;20.70;1.00;;;;;;5070384;28;20536;-65
2022/05/05 14:26:56;;;;;;;6.23;4.70;;;20.60;1.00;;;;;;5070382;28;20166;-60